If you wish to contribute or participate in the discussions about articles you are invited to join SKYbrary as a registered user

 Actions

Barrow Island Airport

From SKYbrary Wiki

YBWX
Airport
ICAO: YBWX – IATA: BWB
Summary
Name Barrow Island Airport
Region Asia and Pacific
Territory Australia AU.gif
Location Barrow Island, Western Australia
Serving Barrow Island
Elevation 7.925 m
26 ft
26 ft7.925 m
Type small airport
Coordinates 20° 47' 52.80" S, 115° 24' 21.60" E
Runways
Designator Length Width Surface ROPS
3/21 1900 m6,233.596 ft
30 m98.425 ft
ASP /


METAR
Observation YBWX 232200Z AUTO 17021KT //// // ////// 30/20 Q0999
Station Barrow Island Airport
Date/Time 23 March 2019 22:00:00
Wind direction 170°
Wind speed 21 kts
Lowest cloud amount n/a
Temperature 30°C
Dew point 20°C
Humidity 55%
QNH 999 hPa
Weather condition n/a